createdAt,value
2018-10-05T07:05:44.160Z,26.80
2018-10-05T07:10:46.721Z,22.97
2018-10-05T07:15:49.424Z,21.53
2018-10-05T07:20:51.943Z,23.23
2018-10-05T07:25:54.491Z,30.00
2018-10-05T07:30:57.023Z,24.30
2018-10-05T07:35:59.556Z,22.33
2018-10-05T07:41:02.130Z,28.23
2018-10-05T07:46:04.676Z,23.73
2018-10-05T07:51:07.213Z,22.23
2018-10-05T07:56:09.724Z,23.07
2018-10-05T08:01:12.367Z,24.90
2018-10-05T08:06:16.258Z,18.30
2018-10-05T08:11:18.936Z,16.30
2018-10-05T08:16:21.467Z,18.40
2018-10-05T08:21:24.081Z,18.70
2018-10-05T08:26:26.635Z,17.73
2018-10-05T08:31:29.178Z,14.73
2018-10-05T08:36:31.740Z,17.10
2018-10-05T08:41:34.271Z,17.30
2018-10-05T08:46:36.810Z,17.60
2018-10-05T08:51:39.388Z,17.93
2018-10-05T08:56:41.912Z,14.13
2018-10-05T09:01:44.427Z,16.30
2018-10-05T09:06:46.953Z,17.97
2018-10-05T09:11:49.529Z,18.00
2018-10-05T09:16:52.042Z,14.70
2018-10-05T09:21:54.576Z,18.40
2018-10-05T09:26:57.127Z,18.47
2018-10-05T09:31:59.650Z,20.60
2018-10-05T09:37:02.245Z,13.80
2018-10-05T09:42:04.820Z,16.13
2018-10-05T09:47:07.477Z,13.33
2018-10-05T09:52:10.164Z,14.33
2018-10-05T09:57:12.673Z,22.03
2018-10-05T10:02:20.903Z,17.00
2018-10-05T10:07:23.447Z,12.07
2018-10-05T10:12:25.995Z,16.73
2018-10-05T10:17:31.414Z,11.80
2018-10-05T10:22:34.105Z,11.47
2018-10-05T10:27:36.728Z,11.27
2018-10-05T10:32:39.271Z,10.70
2018-10-05T10:37:41.789Z,13.77
2018-10-05T10:42:44.434Z,10.90
2018-10-05T10:47:47.006Z,11.93
2018-10-05T10:52:49.574Z,11.03
2018-10-05T10:57:52.111Z,10.57
2018-10-05T11:02:54.683Z,9.75
2018-10-05T11:07:57.218Z,10.78
2018-10-05T11:12:59.777Z,10.23
2018-10-05T11:18:02.351Z,8.95
2018-10-05T11:23:05.288Z,6.43
2018-10-05T11:28:07.863Z,9.05
2018-10-05T11:33:10.435Z,6.58
2018-10-05T11:38:21.020Z,9.13
2018-10-05T11:43:24.252Z,8.58
2018-10-05T11:48:26.822Z,5.10
2018-10-05T11:53:29.363Z,5.80
2018-10-05T11:58:31.923Z,5.65
2018-10-05T12:03:34.506Z,5.53
2018-10-05T12:08:37.080Z,7.00
2018-10-05T12:13:39.633Z,5.47
2018-10-05T12:18:42.171Z,4.65
2018-10-05T12:23:44.734Z,7.42
2018-10-05T12:28:47.296Z,3.55
2018-10-05T12:33:49.984Z,6.67
2018-10-05T12:38:52.527Z,5.50
2018-10-05T12:43:55.092Z,5.03
2018-10-05T12:48:57.654Z,5.72
2018-10-05T12:54:00.219Z,3.50
2018-10-05T12:59:02.813Z,4.45
2018-10-05T13:04:05.398Z,4.78
2018-10-05T13:09:08.396Z,4.00
2018-10-05T13:14:11.036Z,3.58
2018-10-05T13:19:13.614Z,3.02
2018-10-05T13:24:16.179Z,3.45
2018-10-05T13:29:18.736Z,3.77
2018-10-05T13:34:21.376Z,3.75
2018-10-05T13:39:23.930Z,3.65
2018-10-05T13:44:26.533Z,3.67
2018-10-05T13:49:29.108Z,3.87
2018-10-05T13:54:31.648Z,3.87
2018-10-05T13:59:34.210Z,3.87
2018-10-05T14:04:36.794Z,2.87
2018-10-05T14:09:39.358Z,3.92
2018-10-05T14:14:41.935Z,2.95
2018-10-05T14:19:44.555Z,4.00
2018-10-05T14:24:47.111Z,2.75
2018-10-05T14:29:49.649Z,4.37
2018-10-05T14:34:52.235Z,3.50
2018-10-05T14:39:54.790Z,2.60
2018-10-05T14:44:57.336Z,3.70
2018-10-05T14:49:59.969Z,5.35
2018-10-05T14:55:02.531Z,2.98
2018-10-05T15:00:05.509Z,4.03
2018-10-05T15:05:08.163Z,3.05
2018-10-05T15:10:10.704Z,3.20
2018-10-05T15:15:13.305Z,2.95
2018-10-05T15:20:15.852Z,4.40
2018-10-05T15:25:18.409Z,3.85
2018-10-05T15:30:20.960Z,2.70
2018-10-05T15:35:23.515Z,4.87
2018-10-05T15:40:26.089Z,3.37
2018-10-05T15:45:28.676Z,4.22
2018-10-05T15:50:31.220Z,3.85
2018-10-05T15:55:33.793Z,3.12
2018-10-05T16:00:36.476Z,6.15
2018-10-05T16:05:39.096Z,3.65
2018-10-05T16:10:41.685Z,4.77
2018-10-05T16:15:44.296Z,5.90
2018-10-05T16:20:46.869Z,3.20
2018-10-05T16:25:49.520Z,6.97
2018-10-05T16:30:52.094Z,6.57
2018-10-05T16:35:54.685Z,8.57
2018-10-05T16:40:57.446Z,8.63
2018-10-05T16:45:59.914Z,7.27
2018-10-05T16:51:02.644Z,6.03
2018-10-05T16:56:05.261Z,11.67
2018-10-05T17:01:07.876Z,6.50
2018-10-05T17:06:10.510Z,7.53
2018-10-05T17:11:13.073Z,8.63
2018-10-05T17:16:15.631Z,5.57
2018-10-05T17:21:18.273Z,5.87
2018-10-05T17:26:20.896Z,9.20
2018-10-05T17:31:23.869Z,11.07
2018-10-05T17:36:26.455Z,10.83
2018-10-05T17:41:29.168Z,11.23
2018-10-05T17:46:31.931Z,9.50
2018-10-05T17:51:34.487Z,10.30
2018-10-05T17:56:37.019Z,8.37
2018-10-05T18:01:39.561Z,12.47
2018-10-05T18:06:42.117Z,11.43
2018-10-05T18:11:44.677Z,12.13
2018-10-05T18:16:47.203Z,11.97
2018-10-05T18:21:49.737Z,12.47
2018-10-05T18:26:52.361Z,15.37
2018-10-05T18:31:54.948Z,12.47
2018-10-05T18:36:57.531Z,14.33
2018-10-05T18:42:00.052Z,13.53
2018-10-05T18:47:02.691Z,9.43
2018-10-05T18:52:05.295Z,11.67
2018-10-05T18:57:16.192Z,12.57
2018-10-05T19:02:19.330Z,8.53
2018-10-05T19:07:22.001Z,10.43
2018-10-05T19:12:24.556Z,11.23
2018-10-05T19:17:27.163Z,9.07
2018-10-05T19:22:29.771Z,6.50
2018-10-05T19:27:32.315Z,11.00
2018-10-05T19:32:34.852Z,8.07
2018-10-05T19:37:37.727Z,10.83
2018-10-05T19:42:40.262Z,7.10
2018-10-05T19:47:42.840Z,7.30
2018-10-05T19:52:45.368Z,8.63
2018-10-05T19:57:47.942Z,8.03
2018-10-05T20:02:51.511Z,8.80
2018-10-05T20:07:54.070Z,8.27
2018-10-05T20:12:56.646Z,9.73
2018-10-05T20:17:59.320Z,7.30
2018-10-05T20:23:01.751Z,6.97
2018-10-05T20:28:04.432Z,7.70
2018-10-05T20:33:06.999Z,6.70
2018-10-05T20:38:09.813Z,8.80
2018-10-05T20:43:12.630Z,7.70
2018-10-05T20:48:15.787Z,6.60
2018-10-05T20:53:18.319Z,8.90
2018-10-05T20:58:20.830Z,6.90
2018-10-05T21:03:23.371Z,7.47
2018-10-05T21:08:25.946Z,6.60
2018-10-05T21:13:28.482Z,8.47
2018-10-05T21:18:31.012Z,6.20
2018-10-05T21:23:33.557Z,6.23
2018-10-05T21:28:36.130Z,6.20
2018-10-05T21:33:38.667Z,7.33
2018-10-05T21:38:41.405Z,65.67
2018-10-05T21:43:43.918Z,23.40
2018-10-05T21:48:46.547Z,21.43
2018-10-05T21:53:49.070Z,14.97
2018-10-05T21:58:51.783Z,14.57
2018-10-05T22:03:54.403Z,15.77
2018-10-05T22:08:57.320Z,14.23
2018-10-05T22:14:00.198Z,11.63
2018-10-05T22:19:02.773Z,13.50
2018-10-05T22:24:05.751Z,9.97
2018-10-05T22:29:08.717Z,11.63
2018-10-05T22:34:18.008Z,10.17
2018-10-05T22:39:20.556Z,15.70
2018-10-05T22:44:23.266Z,12.43
2018-10-05T22:49:25.947Z,10.00
2018-10-05T22:54:28.501Z,8.70
2018-10-05T22:59:31.315Z,6.47
2018-10-05T23:04:34.006Z,6.90
2018-10-05T23:09:36.901Z,6.10
2018-10-05T23:14:39.659Z,8.13
2018-10-05T23:19:42.310Z,9.07
2018-10-05T23:24:45.013Z,7.40
2018-10-05T23:29:47.583Z,10.93
2018-10-05T23:34:50.186Z,7.83
2018-10-05T23:39:52.856Z,5.77
2018-10-05T23:44:55.529Z,6.97
2018-10-05T23:49:58.102Z,7.17
2018-10-05T23:55:00.668Z,7.83
